Rochester, Minnesota
Current Conditions -  °F | °C
As of 11:54 AM on Saturday 25 Oct 2014 (Local Time) from KRST Reporting Station
Clear Clear  
Wind Chill: 61°   Ceiling: Unl
Heat Index: 61°   Visibility: 10mi
Dew Point: 32°   Wind: 15mph
Humidity: 34%   Direction: 320°NW
Pressure: 30.08"   Gusts: 25mph
Location:  44.02°N, 92.46°W
Report Text: KRST 251654Z 32013G22KT 10SM CLR 16/00 A3008 RMK AO2 SLP187 T01610000
Loading
Personal Weather Stations






























Interactive Weather Map
Tropical Storm Tracking
New forecast layout! Learn more

10-Day Weather Forecast

Advertisements
Track Severe Weather on mobile